createdAt,value
2023-03-17T00:01:54.463Z,5.93
2023-03-17T00:04:56.312Z,6.10
2023-03-17T00:08:21.252Z,5.73
2023-03-17T00:11:23.431Z,5.97
2023-03-17T00:14:25.299Z,5.93
2023-03-17T00:17:27.200Z,5.87
2023-03-17T00:20:31.891Z,5.30
2023-03-17T00:23:35.179Z,5.33
2023-03-17T00:26:36.819Z,5.70
2023-03-17T00:29:39.908Z,5.37
2023-03-17T00:32:41.578Z,5.53
2023-03-17T00:35:46.366Z,5.30
2023-03-17T00:38:48.518Z,5.40
2023-03-17T00:41:50.137Z,5.27
2023-03-17T00:44:52.123Z,5.63
2023-03-17T00:47:57.882Z,5.43
2023-03-17T00:50:59.654Z,6.10
2023-03-17T00:54:01.518Z,5.27
2023-03-17T00:57:03.158Z,5.27
2023-03-17T01:00:06.545Z,5.70
2023-03-17T01:03:11.447Z,5.93
2023-03-17T01:06:13.712Z,5.70
2023-03-17T01:09:18.339Z,5.63
2023-03-17T01:12:20.692Z,5.23
2023-03-17T01:15:22.992Z,4.90
2023-03-17T01:18:24.690Z,5.50
2023-03-17T01:21:26.475Z,5.80
2023-03-17T01:24:28.500Z,6.63
2023-03-17T01:27:34.965Z,6.37
2023-03-17T01:30:39.251Z,5.30
2023-03-17T01:33:41.345Z,5.03
2023-03-17T01:36:43.127Z,5.40
2023-03-17T01:39:45.414Z,4.77
2023-03-17T01:43:00.268Z,4.90
2023-03-17T01:46:29.119Z,4.63
2023-03-17T01:49:37.364Z,6.20
2023-03-17T01:52:40.376Z,4.80
2023-03-17T01:55:45.464Z,5.97
2023-03-17T01:58:51.355Z,5.07
2023-03-17T02:02:01.375Z,5.27
2023-03-17T02:05:05.818Z,4.63
2023-03-17T02:08:13.153Z,5.40
2023-03-17T02:11:15.211Z,5.20
2023-03-17T02:14:16.780Z,5.00
2023-03-17T02:17:23.610Z,5.37
2023-03-17T02:20:25.136Z,4.90
2023-03-17T02:23:26.808Z,5.33
2023-03-17T02:26:31.529Z,5.27
2023-03-17T02:29:34.937Z,5.27
2023-03-17T02:32:37.467Z,5.87
2023-03-17T02:35:40.696Z,5.07
2023-03-17T02:38:42.423Z,5.50
2023-03-17T02:41:44.028Z,5.03
2023-03-17T02:44:45.662Z,5.27
2023-03-17T02:47:47.930Z,5.17
2023-03-17T02:50:49.573Z,5.13
2023-03-17T02:53:51.408Z,5.20
2023-03-17T02:56:53.088Z,5.40
2023-03-17T02:59:54.710Z,5.63
2023-03-17T03:02:56.869Z,5.30
2023-03-17T03:05:58.715Z,6.20
2023-03-17T03:09:00.640Z,5.00
2023-03-17T03:12:02.671Z,4.87
2023-03-17T03:15:05.382Z,5.50
2023-03-17T03:18:06.970Z,5.97
2023-03-17T03:21:09.541Z,5.27
2023-03-17T03:24:11.505Z,6.00
2023-03-17T03:27:13.096Z,6.60
2023-03-17T03:30:14.831Z,6.03
2023-03-17T03:33:17.368Z,6.00
2023-03-17T03:36:20.773Z,5.97
2023-03-17T03:39:22.389Z,5.83
2023-03-17T03:42:24.013Z,5.60
2023-03-17T03:45:25.765Z,5.70
2023-03-17T03:48:27.796Z,5.67
2023-03-17T03:51:29.467Z,5.90
2023-03-17T03:54:31.056Z,5.80
2023-03-17T03:57:32.613Z,6.07
2023-03-17T04:00:34.238Z,6.60
2023-03-17T04:03:37.478Z,5.70
2023-03-17T04:06:39.593Z,6.47
2023-03-17T04:09:41.404Z,5.70
2023-03-17T04:12:43.772Z,6.77
2023-03-17T04:15:45.440Z,6.40
2023-03-17T04:18:47.275Z,5.70
2023-03-17T04:21:49.400Z,5.97
2023-03-17T04:24:51.319Z,6.20
2023-03-17T04:27:52.906Z,5.77
2023-03-17T04:30:54.607Z,6.70
2023-03-17T04:33:56.582Z,7.63
2023-03-17T04:36:58.216Z,6.10
2023-03-17T04:39:59.804Z,7.20
2023-03-17T04:43:03.482Z,6.60
2023-03-17T04:46:05.528Z,6.80
2023-03-17T04:49:07.212Z,7.07
2023-03-17T04:52:08.872Z,5.93
2023-03-17T04:55:11.888Z,6.60
2023-03-17T04:58:21.097Z,7.63
2023-03-17T05:01:29.706Z,6.00
2023-03-17T05:04:32.472Z,6.80
2023-03-17T05:07:34.324Z,7.20
2023-03-17T05:10:36.155Z,6.30
2023-03-17T05:13:37.899Z,6.67
2023-03-17T05:16:39.534Z,6.73
2023-03-17T05:19:41.224Z,7.20
2023-03-17T05:22:42.946Z,7.70
2023-03-17T05:25:45.663Z,7.30
2023-03-17T05:28:48.323Z,7.60
2023-03-17T05:31:49.892Z,7.73
2023-03-17T05:34:51.976Z,8.03
2023-03-17T05:37:54.028Z,8.10
2023-03-17T05:40:55.693Z,8.20
2023-03-17T05:43:57.307Z,7.93
2023-03-17T05:46:59.646Z,8.03
2023-03-17T05:50:01.742Z,7.93
2023-03-17T05:53:03.368Z,7.23
2023-03-17T05:56:05.200Z,7.37
2023-03-17T05:59:06.759Z,8.00
2023-03-17T06:02:09.019Z,7.90
2023-03-17T06:05:10.737Z,7.27
2023-03-17T06:08:12.964Z,8.40
2023-03-17T06:11:14.515Z,8.10
2023-03-17T06:14:16.133Z,7.70
2023-03-17T06:17:18.122Z,7.50
2023-03-17T06:20:20.070Z,8.60
2023-03-17T06:23:23.519Z,9.37
2023-03-17T06:26:25.182Z,8.00
2023-03-17T06:29:28.610Z,8.80
2023-03-17T06:32:30.631Z,7.87
2023-03-17T06:35:33.466Z,12.33
2023-03-17T06:38:35.699Z,9.83
2023-03-17T06:41:37.317Z,8.03
2023-03-17T06:44:38.891Z,7.10
2023-03-17T06:47:40.518Z,7.40
2023-03-17T06:50:42.176Z,8.20
2023-03-17T06:53:43.767Z,7.70
2023-03-17T06:56:45.673Z,6.50
2023-03-17T06:59:47.274Z,7.00
2023-03-17T07:02:49.551Z,7.93
2023-03-17T07:05:51.988Z,7.50
2023-03-17T07:08:53.684Z,8.03
2023-03-17T07:11:55.361Z,7.87
2023-03-17T07:14:57.936Z,7.73
2023-03-17T07:17:59.527Z,6.97
2023-03-17T07:21:02.360Z,8.10
2023-03-17T07:24:04.404Z,8.53
2023-03-17T07:27:06.076Z,7.20
2023-03-17T07:30:08.692Z,7.10
2023-03-17T07:33:11.270Z,7.13
2023-03-17T07:36:13.086Z,7.83
2023-03-17T07:39:15.536Z,7.27
2023-03-17T07:42:17.555Z,7.60
2023-03-17T07:45:19.146Z,7.67
2023-03-17T07:48:21.099Z,7.47
2023-03-17T07:51:25.265Z,8.30
2023-03-17T07:54:27.637Z,7.67
2023-03-17T07:57:29.707Z,8.07
2023-03-17T08:00:32.082Z,8.40
2023-03-17T08:03:34.276Z,8.30
2023-03-17T08:06:35.885Z,6.70
2023-03-17T08:09:37.526Z,6.40
2023-03-17T08:12:40.600Z,6.30
2023-03-17T08:15:42.458Z,6.23
2023-03-17T08:18:44.387Z,5.90
2023-03-17T08:21:46.101Z,6.27
2023-03-17T08:24:47.703Z,6.77
2023-03-17T08:27:49.322Z,6.17
2023-03-17T08:30:50.981Z,6.77
2023-03-17T08:33:54.244Z,6.60
2023-03-17T08:36:56.513Z,6.67
2023-03-17T08:39:58.862Z,5.90
2023-03-17T08:43:00.494Z,6.70
2023-03-17T08:46:13.803Z,7.60
2023-03-17T08:49:16.400Z,6.93
2023-03-17T08:52:18.184Z,6.43
2023-03-17T08:55:20.668Z,7.70
2023-03-17T08:58:22.293Z,7.00
2023-03-17T09:01:24.769Z,6.87
2023-03-17T09:04:27.896Z,7.10
2023-03-17T09:07:29.512Z,7.03
2023-03-17T09:10:31.472Z,7.60
2023-03-17T09:13:34.426Z,8.13
2023-03-17T09:16:36.096Z,7.67
2023-03-17T09:19:38.723Z,7.17
2023-03-17T09:22:41.346Z,7.33
2023-03-17T09:25:43.299Z,8.10
2023-03-17T09:28:44.885Z,7.40
2023-03-17T09:31:47.446Z,7.40
2023-03-17T09:34:51.396Z,8.40
2023-03-17T09:37:53.284Z,7.60
2023-03-17T09:41:19.715Z,7.13
2023-03-17T09:44:45.183Z,8.10
2023-03-17T09:48:05.872Z,7.47
2023-03-17T09:51:18.406Z,7.80
2023-03-17T09:54:36.213Z,7.60
2023-03-17T09:57:40.266Z,7.83
2023-03-17T10:00:41.884Z,7.13
2023-03-17T10:03:43.487Z,7.30
2023-03-17T10:06:51.933Z,7.13
2023-03-17T10:10:03.044Z,7.10
2023-03-17T10:13:29.424Z,7.50
2023-03-17T10:17:15.297Z,8.03
2023-03-17T10:20:27.040Z,7.60
2023-03-17T10:23:32.219Z,8.30
2023-03-17T10:26:45.974Z,7.73
2023-03-17T10:29:48.663Z,7.83
2023-03-17T10:32:52.397Z,7.63
2023-03-17T10:35:54.055Z,7.60
2023-03-17T10:38:56.027Z,6.90
2023-03-17T10:42:09.298Z,7.13
2023-03-17T10:45:29.471Z,7.30
2023-03-17T10:48:36.300Z,7.83
2023-03-17T10:51:40.464Z,7.90
2023-03-17T10:54:48.549Z,6.73
2023-03-17T10:58:01.894Z,8.33
2023-03-17T11:01:16.123Z,7.33
2023-03-17T11:04:33.623Z,7.53
2023-03-17T11:07:40.657Z,7.27
2023-03-17T11:10:42.440Z,6.50
2023-03-17T11:13:43.998Z,6.90
2023-03-17T11:16:55.795Z,7.10
2023-03-17T11:20:27.573Z,7.20
2023-03-17T11:23:44.108Z,6.53
2023-03-17T11:26:59.153Z,7.87
2023-03-17T11:30:25.236Z,7.50
2023-03-17T11:33:33.615Z,7.47
2023-03-17T11:36:41.310Z,7.33
2023-03-17T11:39:43.142Z,7.90
2023-03-17T11:43:18.953Z,7.90
2023-03-17T11:46:43.415Z,7.33
2023-03-17T11:49:51.984Z,6.90
2023-03-17T11:53:18.266Z,7.73
2023-03-17T11:57:01.209Z,8.23
2023-03-17T12:00:07.363Z,7.60
2023-03-17T12:03:40.168Z,7.40
2023-03-17T12:06:50.538Z,7.17
2023-03-17T12:10:06.579Z,7.93
2023-03-17T12:13:39.762Z,7.73
2023-03-17T12:16:49.638Z,7.83
2023-03-17T12:20:09.809Z,8.30
2023-03-17T12:23:29.713Z,8.40
2023-03-17T12:26:49.337Z,7.77
2023-03-17T12:30:20.782Z,8.60
2023-03-17T12:33:52.496Z,8.20
2023-03-17T12:36:54.231Z,8.10
2023-03-17T12:40:20.155Z,7.87
2023-03-17T12:43:39.987Z,7.47
2023-03-17T12:46:50.535Z,8.10
2023-03-17T12:50:05.671Z,7.80
2023-03-17T12:53:28.396Z,7.97
2023-03-17T12:56:32.533Z,7.73
2023-03-17T12:59:36.322Z,7.87
2023-03-17T13:02:39.680Z,7.17
2023-03-17T13:05:46.957Z,8.10
2023-03-17T13:08:51.955Z,7.43
2023-03-17T13:11:53.875Z,8.73
2023-03-17T13:14:58.455Z,7.73
2023-03-17T13:18:18.312Z,6.37
2023-03-17T13:21:23.260Z,8.00
2023-03-17T13:24:47.280Z,6.80
2023-03-17T13:27:49.857Z,6.40
2023-03-17T13:30:54.995Z,6.87
2023-03-17T13:34:12.709Z,5.93
2023-03-17T13:37:27.486Z,6.77
2023-03-17T13:41:04.275Z,6.10
2023-03-17T13:44:15.559Z,7.43
2023-03-17T13:47:31.124Z,6.07
2023-03-17T13:50:33.739Z,6.50
2023-03-17T13:53:57.276Z,5.60
2023-03-17T13:57:21.798Z,5.87
2023-03-17T14:00:27.758Z,5.53
2023-03-17T14:03:37.826Z,6.67
2023-03-17T14:06:39.864Z,7.57
2023-03-17T14:09:43.397Z,7.03
2023-03-17T14:12:57.766Z,7.50
2023-03-17T14:16:05.485Z,6.23
2023-03-17T14:19:22.968Z,6.43
2023-03-17T14:22:25.246Z,6.17
2023-03-17T14:25:34.541Z,6.27
2023-03-17T14:28:36.940Z,6.20
2023-03-17T14:31:38.535Z,4.90
2023-03-17T14:35:02.003Z,5.97
2023-03-17T14:38:13.365Z,6.30
2023-03-17T14:41:14.927Z,5.40
2023-03-17T14:44:16.845Z,6.07
2023-03-17T14:47:25.212Z,5.50
2023-03-17T14:50:32.369Z,4.70
2023-03-17T14:53:42.902Z,5.53
2023-03-17T14:56:48.537Z,5.30
2023-03-17T14:59:59.009Z,4.93
2023-03-17T15:03:05.479Z,5.13
2023-03-17T15:06:24.248Z,4.77
2023-03-17T15:09:33.135Z,4.97
2023-03-17T15:12:34.780Z,4.70
2023-03-17T15:15:38.872Z,5.03
2023-03-17T15:18:40.502Z,5.30
2023-03-17T15:21:43.092Z,5.90
2023-03-17T15:24:44.652Z,5.10
2023-03-17T15:27:47.420Z,5.70
2023-03-17T15:30:51.749Z,6.17
2023-03-17T15:33:53.474Z,5.60
2023-03-17T15:36:55.594Z,4.53
2023-03-17T15:39:59.012Z,4.97
2023-03-17T15:43:00.774Z,5.27
2023-03-17T15:46:08.343Z,6.70
2023-03-17T15:49:12.314Z,6.53
2023-03-17T15:52:27.695Z,5.60
2023-03-17T15:55:31.088Z,5.50
2023-03-17T15:58:32.902Z,6.80
2023-03-17T16:01:35.289Z,6.20
2023-03-17T16:04:37.004Z,7.13
2023-03-17T16:07:38.721Z,7.13
2023-03-17T16:10:40.885Z,6.60
2023-03-17T16:13:42.655Z,8.00
2023-03-17T16:16:45.791Z,7.10
2023-03-17T16:19:48.764Z,7.20
2023-03-17T16:22:52.373Z,8.30
2023-03-17T16:25:59.299Z,7.00
2023-03-17T16:29:13.585Z,6.77
2023-03-17T16:32:15.306Z,6.70
2023-03-17T16:35:22.292Z,7.13
2023-03-17T16:38:26.740Z,7.43
2023-03-17T16:41:29.458Z,6.90
2023-03-17T16:44:31.818Z,7.97
2023-03-17T16:47:33.387Z,7.60
2023-03-17T16:50:35.181Z,7.57
2023-03-17T16:53:36.737Z,7.80
2023-03-17T16:56:41.014Z,7.43
2023-03-17T16:59:42.651Z,10.03
2023-03-17T17:02:44.979Z,9.23
2023-03-17T17:05:46.721Z,8.97
2023-03-17T17:08:49.374Z,11.50
2023-03-17T17:11:51.037Z,9.60
2023-03-17T17:14:52.585Z,8.00
2023-03-17T17:17:57.738Z,8.40
2023-03-17T17:20:59.322Z,7.73
2023-03-17T17:24:00.989Z,8.70
2023-03-17T17:27:02.583Z,7.87
2023-03-17T17:30:05.713Z,9.20
2023-03-17T17:33:08.455Z,9.53
2023-03-17T17:36:16.162Z,10.53
2023-03-17T17:39:17.833Z,12.00
2023-03-17T17:42:20.479Z,12.10
2023-03-17T17:45:22.468Z,11.00
2023-03-17T17:48:26.153Z,11.70
2023-03-17T17:51:28.674Z,12.40
2023-03-17T17:54:30.389Z,10.70
2023-03-17T17:57:32.050Z,11.13
2023-03-17T18:00:34.025Z,10.73
2023-03-17T18:03:35.893Z,9.30
2023-03-17T18:06:37.497Z,7.13
2023-03-17T18:09:39.196Z,7.17
2023-03-17T18:12:40.761Z,6.97
2023-03-17T18:15:42.749Z,9.20
2023-03-17T18:18:46.125Z,7.97
2023-03-17T18:21:47.765Z,7.70
2023-03-17T18:24:49.861Z,9.47
2023-03-17T18:27:51.706Z,9.30
2023-03-17T18:30:53.913Z,10.33
2023-03-17T18:33:59.915Z,9.30
2023-03-17T18:37:01.874Z,8.77
2023-03-17T18:40:14.455Z,9.97
2023-03-17T18:43:18.326Z,9.10
2023-03-17T18:46:19.940Z,9.00
2023-03-17T18:49:23.964Z,8.93
2023-03-17T18:52:31.489Z,9.60
2023-03-17T18:55:33.289Z,9.10
2023-03-17T18:58:36.183Z,10.73
2023-03-17T19:01:38.263Z,14.10
2023-03-17T19:04:45.949Z,9.40
2023-03-17T19:07:47.704Z,9.30
2023-03-17T19:10:49.690Z,9.50
2023-03-17T19:13:52.360Z,9.83
2023-03-17T19:16:54.001Z,9.10
2023-03-17T19:19:55.757Z,9.20
2023-03-17T19:22:58.258Z,8.90
2023-03-17T19:26:00.409Z,10.03
2023-03-17T19:29:02.069Z,9.17
2023-03-17T19:32:03.811Z,10.03
2023-03-17T19:35:07.420Z,9.57
2023-03-17T19:38:09.791Z,10.07
2023-03-17T19:41:11.704Z,9.97
2023-03-17T19:44:13.365Z,9.90
2023-03-17T19:47:15.426Z,10.40
2023-03-17T19:50:17.174Z,10.03
2023-03-17T19:53:18.735Z,9.60
2023-03-17T19:56:21.088Z,10.40
2023-03-17T19:59:23.440Z,10.83
2023-03-17T20:02:25.027Z,10.67
2023-03-17T20:05:26.639Z,12.00
2023-03-17T20:08:28.204Z,12.00
2023-03-17T20:11:33.606Z,12.47
2023-03-17T20:14:35.193Z,12.07
2023-03-17T20:17:36.885Z,13.80
2023-03-17T20:20:38.525Z,16.97
2023-03-17T20:23:40.171Z,14.07
2023-03-17T20:26:43.229Z,11.63
2023-03-17T20:29:45.328Z,12.70
2023-03-17T20:32:46.892Z,11.37
2023-03-17T20:35:48.609Z,10.90
2023-03-17T20:38:50.712Z,12.27
2023-03-17T20:41:52.360Z,12.60
2023-03-17T20:44:54.015Z,11.60
2023-03-17T20:47:55.950Z,9.80
2023-03-17T20:50:58.218Z,11.10
2023-03-17T20:54:01.583Z,11.03
2023-03-17T20:57:03.186Z,11.93
2023-03-17T21:00:05.338Z,11.60
2023-03-17T21:03:07.180Z,10.17
2023-03-17T21:06:09.576Z,9.43
2023-03-17T21:09:11.128Z,10.07
2023-03-17T21:12:19.396Z,10.20
2023-03-17T21:15:22.801Z,10.60
2023-03-17T21:18:24.481Z,9.00
2023-03-17T21:21:27.209Z,8.77
2023-03-17T21:24:32.306Z,8.33
2023-03-17T21:27:36.794Z,8.10
2023-03-17T21:30:39.128Z,7.93
2023-03-17T21:33:43.374Z,7.73
2023-03-17T21:36:45.153Z,7.63
2023-03-17T21:39:46.755Z,8.47
2023-03-17T21:42:49.235Z,7.00
2023-03-17T21:45:51.433Z,8.87
2023-03-17T21:48:53.981Z,8.00
2023-03-17T21:51:55.685Z,8.20
2023-03-17T21:54:57.354Z,7.33
2023-03-17T21:57:59.121Z,7.37
2023-03-17T22:01:01.379Z,7.53
2023-03-17T22:04:03.103Z,6.77
2023-03-17T22:07:04.743Z,6.77
2023-03-17T22:10:07.159Z,6.43
2023-03-17T22:13:08.785Z,7.30
2023-03-17T22:16:12.339Z,6.87
2023-03-17T22:19:13.982Z,7.70
2023-03-17T22:22:15.854Z,7.23
2023-03-17T22:25:17.543Z,8.10
2023-03-17T22:28:19.449Z,7.07
2023-03-17T22:31:25.459Z,7.60
2023-03-17T22:34:27.448Z,9.90
2023-03-17T22:37:29.052Z,7.90
2023-03-17T22:40:30.922Z,7.70
2023-03-17T22:43:32.756Z,7.67
2023-03-17T22:46:34.803Z,8.27
2023-03-17T22:49:36.628Z,8.10
2023-03-17T22:52:38.616Z,7.63
2023-03-17T22:55:40.220Z,7.60
2023-03-17T22:58:42.620Z,7.70
2023-03-17T23:01:45.794Z,7.97
2023-03-17T23:04:47.376Z,7.80
2023-03-17T23:07:51.380Z,7.73
2023-03-17T23:10:53.986Z,8.60
2023-03-17T23:13:56.376Z,7.73
2023-03-17T23:16:58.032Z,9.03
2023-03-17T23:19:59.678Z,8.17
2023-03-17T23:23:01.361Z,8.90
2023-03-17T23:26:03.051Z,8.40
2023-03-17T23:29:06.888Z,8.43
2023-03-17T23:32:10.254Z,7.80
2023-03-17T23:35:13.443Z,8.93
2023-03-17T23:38:15.055Z,9.80
2023-03-17T23:41:17.366Z,9.30
2023-03-17T23:44:18.934Z,9.30
2023-03-17T23:47:21.230Z,8.73
2023-03-17T23:50:23.568Z,9.30
2023-03-17T23:53:26.375Z,8.67
2023-03-17T23:56:27.943Z,8.93
2023-03-17T23:59:29.563Z,9.10
